Terminal Aerodrome Forecast
Issued by NWS Twin Cities, MN

Home | Current Version | Previous Version | Text Only | Print | Product List | Glossary On
Versions: 1 2 3 4 5 6 7 8 9 10 11 12 13 14 15
000
FTUS43 KMPX 241100
TAFEAU
TAF
KEAU 241120Z 2412/2512 12012G20KT 4SM -RA BR SCT007 OVC015
      TEMPO 2412/2415 2SM RA BR OVC007
     FM241600 15011G16KT 3SM -RA BR BKN008 OVC015
     FM250000 12004KT 4SM BR SCT007 OVC015
     FM250300 27005KT 6SM BR SCT007 BKN015
     FM250700 26003KT 3SM BR SCT007 BKN015=

USA.gov is the U.S. government's official web portal to all federal, state and local government web resources and services.